createdAt,value
2023-03-26T00:00:05.908Z,9.78
2023-03-26T00:02:41.117Z,9.79
2023-03-26T00:05:14.932Z,9.76
2023-03-26T00:07:44.445Z,9.72
2023-03-26T00:10:12.572Z,9.68
2023-03-26T00:12:40.624Z,9.66
2023-03-26T00:15:10.655Z,9.62
2023-03-26T00:17:38.737Z,9.60
2023-03-26T00:20:11.700Z,9.59
2023-03-26T00:22:41.848Z,9.61
2023-03-26T00:25:11.836Z,9.62
2023-03-26T00:27:41.112Z,9.62
2023-03-26T00:30:09.834Z,9.61
2023-03-26T00:32:38.283Z,9.60
2023-03-26T00:35:07.176Z,9.59
2023-03-26T00:37:35.671Z,9.58
2023-03-26T00:40:08.449Z,9.59
2023-03-26T00:42:38.118Z,9.60
2023-03-26T00:45:07.570Z,9.62
2023-03-26T00:47:36.280Z,9.68
2023-03-26T00:50:05.425Z,9.74
2023-03-26T00:52:36.303Z,9.78
2023-03-26T00:55:07.370Z,9.83
2023-03-26T00:57:37.488Z,9.87
2023-03-26T01:00:11.304Z,9.90
2023-03-26T01:02:41.468Z,9.97
2023-03-26T01:05:35.150Z,10.03
2023-03-26T01:08:25.850Z,10.11
2023-03-26T01:11:02.804Z,10.17
2023-03-26T01:13:35.707Z,10.23
2023-03-26T01:16:20.526Z,10.27
2023-03-26T01:18:49.022Z,10.31
2023-03-26T01:21:22.859Z,10.33
2023-03-26T01:24:07.691Z,10.34
2023-03-26T01:26:54.679Z,10.35
2023-03-26T01:29:39.422Z,10.36
2023-03-26T01:32:37.860Z,10.37
2023-03-26T01:35:33.659Z,10.36
2023-03-26T01:38:11.282Z,10.37
2023-03-26T01:40:47.098Z,10.35
2023-03-26T01:43:27.860Z,10.33
2023-03-26T01:45:56.903Z,10.30
2023-03-26T01:48:31.441Z,10.22
2023-03-26T01:50:59.881Z,10.13
2023-03-26T01:53:27.988Z,10.04
2023-03-26T01:56:04.187Z,9.98
2023-03-26T01:58:39.549Z,9.91
2023-03-26T02:01:29.724Z,9.82
2023-03-26T02:04:03.052Z,9.72
2023-03-26T02:06:46.805Z,9.64
2023-03-26T02:09:17.626Z,9.56
2023-03-26T02:11:46.026Z,9.49
2023-03-26T02:14:15.887Z,9.44
2023-03-26T02:16:47.244Z,9.39
2023-03-26T02:19:22.031Z,9.34
2023-03-26T02:21:59.906Z,9.30
2023-03-26T02:24:28.962Z,9.28
2023-03-26T02:27:02.424Z,9.25
2023-03-26T02:29:31.082Z,9.23
2023-03-26T02:32:12.370Z,9.22
2023-03-26T02:34:41.519Z,9.21
2023-03-26T02:37:09.725Z,9.19
2023-03-26T02:39:44.323Z,9.16
2023-03-26T02:42:24.762Z,9.11
2023-03-26T02:44:56.292Z,9.08
2023-03-26T02:47:46.407Z,9.06
2023-03-26T02:50:50.236Z,9.00
2023-03-26T02:53:33.995Z,8.97
2023-03-26T02:56:36.170Z,8.97
2023-03-26T02:59:18.722Z,8.94
2023-03-26T03:01:51.107Z,8.90
2023-03-26T03:04:22.188Z,8.86
2023-03-26T03:06:53.216Z,8.85
2023-03-26T03:09:22.457Z,8.86
2023-03-26T03:12:25.994Z,8.82
2023-03-26T03:15:00.515Z,8.76
2023-03-26T03:17:29.249Z,8.74
2023-03-26T03:19:57.436Z,8.71
2023-03-26T03:22:27.349Z,8.66
2023-03-26T03:25:00.012Z,8.61
2023-03-26T03:27:28.393Z,8.58
2023-03-26T03:30:06.207Z,8.57
2023-03-26T03:32:43.843Z,8.53
2023-03-26T03:35:12.368Z,8.50
2023-03-26T03:37:42.768Z,8.46
2023-03-26T03:40:11.474Z,8.44
2023-03-26T03:42:41.080Z,8.39
2023-03-26T03:45:10.411Z,8.34
2023-03-26T03:48:09.367Z,8.28
2023-03-26T03:50:41.089Z,8.26
2023-03-26T03:53:37.351Z,8.24
2023-03-26T03:56:27.967Z,8.22
2023-03-26T03:59:15.720Z,8.23
2023-03-26T04:01:46.888Z,8.23
2023-03-26T04:04:25.470Z,8.24
2023-03-26T04:06:59.822Z,8.25
2023-03-26T04:09:32.387Z,8.25
2023-03-26T04:12:09.029Z,8.23
2023-03-26T04:14:41.664Z,8.20
2023-03-26T04:17:17.677Z,8.21
2023-03-26T04:19:47.411Z,8.22
2023-03-26T04:22:20.052Z,8.23
2023-03-26T04:25:02.907Z,8.24
2023-03-26T04:28:06.645Z,8.29
2023-03-26T04:30:55.536Z,8.34
2023-03-26T04:33:34.297Z,8.33
2023-03-26T04:36:03.352Z,8.31
2023-03-26T04:38:42.833Z,8.29
2023-03-26T04:41:12.691Z,8.28
2023-03-26T04:44:05.684Z,8.29
2023-03-26T04:46:49.823Z,8.31
2023-03-26T04:49:22.480Z,8.33
2023-03-26T04:51:50.812Z,8.36
2023-03-26T04:54:46.816Z,8.34
2023-03-26T04:57:20.618Z,8.33
2023-03-26T05:00:15.246Z,8.33
2023-03-26T05:02:53.573Z,8.31
2023-03-26T05:05:22.052Z,8.29
2023-03-26T05:07:50.875Z,8.29
2023-03-26T05:10:23.388Z,8.26
2023-03-26T05:13:04.575Z,8.25
2023-03-26T05:15:38.203Z,8.24
2023-03-26T05:18:16.621Z,8.23
2023-03-26T05:20:48.992Z,8.22
2023-03-26T05:23:19.587Z,8.24
2023-03-26T05:25:54.308Z,8.25
2023-03-26T05:28:26.813Z,8.28
2023-03-26T05:31:02.736Z,8.30
2023-03-26T05:33:35.714Z,8.32
2023-03-26T05:36:15.750Z,8.34
2023-03-26T05:38:54.835Z,8.37
2023-03-26T05:41:48.022Z,8.43
2023-03-26T05:44:23.425Z,8.51
2023-03-26T05:46:51.970Z,8.57
2023-03-26T05:49:24.729Z,8.60
2023-03-26T05:51:55.509Z,8.63
2023-03-26T05:54:35.070Z,8.69
2023-03-26T05:57:39.421Z,8.77
2023-03-26T06:00:27.741Z,8.81
2023-03-26T06:02:57.449Z,8.86
2023-03-26T06:05:58.419Z,8.91
2023-03-26T06:08:43.106Z,9.00
2023-03-26T06:11:13.902Z,9.08
2023-03-26T06:13:42.863Z,9.17
2023-03-26T06:16:25.971Z,9.29
2023-03-26T06:18:59.996Z,9.41
2023-03-26T06:21:35.585Z,9.48
2023-03-26T06:24:11.285Z,9.55
2023-03-26T06:27:11.743Z,9.70
2023-03-26T06:29:58.601Z,9.90
2023-03-26T06:32:50.448Z,10.08
2023-03-26T06:35:24.742Z,10.23
2023-03-26T06:37:53.297Z,10.37
2023-03-26T06:40:24.252Z,10.51
2023-03-26T06:43:12.182Z,10.61
2023-03-26T06:45:55.653Z,10.69
2023-03-26T06:48:45.105Z,10.77
2023-03-26T06:51:21.036Z,10.94
2023-03-26T06:54:11.298Z,11.11
2023-03-26T06:57:00.801Z,11.27
2023-03-26T06:59:58.183Z,11.41
2023-03-26T07:02:52.639Z,11.59
2023-03-26T07:05:41.198Z,11.78
2023-03-26T07:08:16.098Z,11.95
2023-03-26T07:11:04.810Z,12.12
2023-03-26T07:13:52.223Z,12.24
2023-03-26T07:16:46.782Z,12.33
2023-03-26T07:19:58.543Z,12.47
2023-03-26T07:22:29.167Z,12.62
2023-03-26T07:25:03.384Z,12.75
2023-03-26T07:28:01.647Z,12.90
2023-03-26T07:30:53.558Z,13.05
2023-03-26T07:33:58.902Z,13.21
2023-03-26T07:37:05.719Z,13.37
2023-03-26T07:39:53.920Z,13.50
2023-03-26T07:43:03.758Z,13.46
2023-03-26T07:45:53.700Z,13.36
2023-03-26T07:48:27.483Z,13.38
2023-03-26T07:51:16.175Z,13.34
2023-03-26T07:54:15.558Z,13.34
2023-03-26T07:57:05.297Z,13.43
2023-03-26T08:00:16.193Z,13.52
2023-03-26T08:03:26.212Z,13.63
2023-03-26T08:06:37.703Z,13.69
2023-03-26T08:09:34.039Z,13.69
2023-03-26T08:12:35.816Z,13.65
2023-03-26T08:15:38.047Z,13.58
2023-03-26T08:18:30.526Z,13.57
2023-03-26T08:21:17.254Z,13.53
2023-03-26T08:23:58.968Z,13.50
2023-03-26T08:26:29.687Z,13.49
2023-03-26T08:29:04.284Z,13.47
2023-03-26T08:31:40.332Z,13.47
2023-03-26T08:34:12.467Z,13.47
2023-03-26T08:36:43.058Z,13.49
2023-03-26T08:39:11.865Z,13.49
2023-03-26T08:42:05.732Z,13.49
2023-03-26T08:44:54.622Z,13.52
2023-03-26T08:47:55.739Z,13.58
2023-03-26T08:50:34.848Z,13.65
2023-03-26T08:53:24.953Z,13.69
2023-03-26T08:56:30.522Z,13.71
2023-03-26T08:59:28.985Z,13.76
2023-03-26T09:02:15.985Z,13.81
2023-03-26T09:05:00.653Z,13.85
2023-03-26T09:07:42.768Z,13.90
2023-03-26T09:10:33.136Z,13.84
2023-03-26T09:13:32.768Z,13.75
2023-03-26T09:16:14.477Z,13.73
2023-03-26T09:18:54.916Z,13.70
2023-03-26T09:21:26.352Z,13.69
2023-03-26T09:24:27.912Z,13.67
2023-03-26T09:27:18.029Z,13.69
2023-03-26T09:30:21.737Z,13.76
2023-03-26T09:33:30.095Z,13.82
2023-03-26T09:36:27.774Z,13.77
2023-03-26T09:39:02.195Z,13.68
2023-03-26T09:41:39.896Z,13.65
2023-03-26T09:44:08.089Z,13.66
2023-03-26T09:46:51.802Z,13.69
2023-03-26T09:49:40.598Z,13.70
2023-03-26T09:52:12.963Z,13.68
2023-03-26T09:55:09.998Z,13.63
2023-03-26T09:58:11.096Z,13.51
2023-03-26T10:01:05.971Z,13.38
2023-03-26T10:03:44.915Z,13.36
2023-03-26T10:06:46.053Z,13.42
2023-03-26T10:09:22.880Z,13.47
2023-03-26T10:12:10.138Z,13.46
2023-03-26T10:14:41.377Z,13.47
2023-03-26T10:17:16.897Z,13.40
2023-03-26T10:19:48.529Z,13.30
2023-03-26T10:22:20.360Z,13.21
2023-03-26T10:25:19.251Z,13.16
2023-03-26T10:27:59.704Z,13.13
2023-03-26T10:30:36.581Z,13.10
2023-03-26T10:33:26.451Z,13.09
2023-03-26T10:36:35.284Z,13.05
2023-03-26T10:39:09.483Z,13.05
2023-03-26T10:41:51.683Z,13.06
2023-03-26T10:44:55.054Z,13.07
2023-03-26T10:47:58.570Z,13.06
2023-03-26T10:50:32.561Z,13.12
2023-03-26T10:53:47.217Z,13.11
2023-03-26T10:56:28.954Z,13.02
2023-03-26T10:58:57.046Z,12.94
2023-03-26T11:01:44.121Z,12.91
2023-03-26T11:04:21.329Z,12.82
2023-03-26T11:07:04.980Z,12.75
2023-03-26T11:09:47.215Z,12.73
2023-03-26T11:12:34.708Z,12.74
2023-03-26T11:15:21.926Z,12.79
2023-03-26T11:18:08.529Z,12.88
2023-03-26T11:20:45.396Z,13.02
2023-03-26T11:23:29.541Z,13.14
2023-03-26T11:26:20.087Z,13.25
2023-03-26T11:29:31.417Z,13.34
2023-03-26T11:32:14.528Z,13.38
2023-03-26T11:34:51.291Z,13.42
2023-03-26T11:37:25.568Z,13.45
2023-03-26T11:39:56.579Z,13.46
2023-03-26T11:42:25.761Z,13.41
2023-03-26T11:45:03.075Z,13.42
2023-03-26T11:47:40.804Z,13.44
2023-03-26T11:50:11.984Z,13.49
2023-03-26T11:52:43.325Z,13.51
2023-03-26T11:55:13.075Z,13.53
2023-03-26T11:57:46.375Z,13.58
2023-03-26T12:00:18.487Z,13.67
2023-03-26T12:02:57.674Z,13.74
2023-03-26T12:05:33.668Z,13.78
2023-03-26T12:08:18.633Z,13.82
2023-03-26T12:10:51.849Z,13.84
2023-03-26T12:13:34.980Z,13.87
2023-03-26T12:16:18.337Z,13.88
2023-03-26T12:18:57.281Z,13.89
2023-03-26T12:21:25.957Z,13.85
2023-03-26T12:23:56.370Z,13.81
2023-03-26T12:26:34.278Z,13.73
2023-03-26T12:29:14.051Z,13.66
2023-03-26T12:31:51.684Z,13.64
2023-03-26T12:34:21.332Z,13.63
2023-03-26T12:36:54.528Z,13.55
2023-03-26T12:40:08.956Z,13.39
2023-03-26T12:44:49.090Z,13.07
2023-03-26T12:45:23.916Z,12.85
2023-03-26T12:47:59.217Z,12.70
2023-03-26T12:50:57.378Z,12.57
2023-03-26T12:53:47.854Z,12.47
2023-03-26T12:56:22.453Z,12.42
2023-03-26T12:59:12.426Z,12.44
2023-03-26T13:01:56.387Z,12.46
2023-03-26T13:05:02.171Z,12.50
2023-03-26T13:08:15.893Z,12.56
2023-03-26T13:11:02.006Z,12.59
2023-03-26T13:13:34.334Z,12.63
2023-03-26T13:16:22.557Z,12.69
2023-03-26T13:18:53.242Z,12.77
2023-03-26T13:21:28.667Z,12.86
2023-03-26T13:24:23.139Z,12.96
2023-03-26T13:26:55.395Z,13.02
2023-03-26T13:29:36.470Z,13.04
2023-03-26T13:32:29.842Z,13.07
2023-03-26T13:35:08.528Z,13.11
2023-03-26T13:37:48.772Z,13.17
2023-03-26T13:40:40.478Z,13.23
2023-03-26T13:43:24.423Z,13.30
2023-03-26T13:45:57.743Z,13.34
2023-03-26T13:48:28.563Z,13.39
2023-03-26T13:51:22.945Z,13.43
2023-03-26T13:53:55.831Z,13.47
2023-03-26T13:56:29.951Z,13.50
2023-03-26T13:59:07.941Z,13.53
2023-03-26T14:01:41.194Z,13.56
2023-03-26T14:04:17.924Z,13.57
2023-03-26T14:06:57.668Z,13.56
2023-03-26T14:09:42.463Z,13.54
2023-03-26T14:12:29.657Z,13.51
2023-03-26T14:15:04.376Z,13.49
2023-03-26T14:17:47.493Z,13.47
2023-03-26T14:20:20.056Z,13.42
2023-03-26T14:22:54.594Z,13.36
2023-03-26T14:25:43.258Z,13.33
2023-03-26T14:28:51.797Z,13.26
2023-03-26T14:31:41.917Z,13.18
2023-03-26T14:34:33.253Z,13.00
2023-03-26T14:37:41.136Z,12.78
2023-03-26T14:40:31.732Z,12.58
2023-03-26T14:43:09.225Z,12.45
2023-03-26T14:46:01.912Z,12.39
2023-03-26T14:48:36.659Z,12.34
2023-03-26T14:51:26.980Z,12.32
2023-03-26T14:54:16.119Z,12.26
2023-03-26T14:56:59.964Z,12.23
2023-03-26T15:00:12.551Z,12.21
2023-03-26T15:03:26.277Z,12.20
2023-03-26T15:06:34.538Z,12.16
2023-03-26T15:09:27.467Z,12.13
2023-03-26T15:12:12.674Z,12.11
2023-03-26T15:15:07.202Z,12.10
2023-03-26T15:17:48.246Z,12.08
2023-03-26T15:20:40.349Z,12.04
2023-03-26T15:23:11.787Z,12.00
2023-03-26T15:26:01.915Z,11.97
2023-03-26T15:29:08.667Z,11.95
2023-03-26T15:31:55.614Z,11.93
2023-03-26T15:34:31.895Z,11.89
2023-03-26T15:37:39.866Z,11.83
2023-03-26T15:40:36.502Z,11.76
2023-03-26T15:43:20.049Z,11.66
2023-03-26T15:45:56.262Z,11.58
2023-03-26T15:48:52.354Z,11.52
2023-03-26T15:51:32.915Z,11.43
2023-03-26T15:54:33.293Z,11.30
2023-03-26T15:57:10.947Z,11.19
2023-03-26T15:59:49.367Z,11.10
2023-03-26T16:02:36.545Z,11.02
2023-03-26T16:05:34.518Z,10.93
2023-03-26T16:08:25.878Z,10.86
2023-03-26T16:10:56.164Z,10.79
2023-03-26T16:13:40.814Z,10.75
2023-03-26T16:16:20.430Z,10.70
2023-03-26T16:18:58.466Z,10.65
2023-03-26T16:21:32.899Z,10.59
2023-03-26T16:24:08.437Z,10.53
2023-03-26T16:26:52.429Z,10.46
2023-03-26T16:29:26.978Z,10.40
2023-03-26T16:31:58.142Z,10.34
2023-03-26T16:34:50.795Z,10.26
2023-03-26T16:38:04.681Z,10.20
2023-03-26T16:40:34.336Z,10.13
2023-03-26T16:43:40.027Z,10.08
2023-03-26T16:46:26.432Z,10.00
2023-03-26T16:49:25.872Z,9.93
2023-03-26T16:52:14.023Z,9.82
2023-03-26T16:55:06.708Z,9.76
2023-03-26T16:57:45.025Z,9.70
2023-03-26T17:00:28.646Z,9.64
2023-03-26T17:03:14.288Z,9.60
2023-03-26T17:05:57.243Z,9.55
2023-03-26T17:08:35.928Z,9.51
2023-03-26T17:11:22.799Z,9.45
2023-03-26T17:14:18.830Z,9.37
2023-03-26T17:16:49.404Z,9.31
2023-03-26T17:19:39.746Z,9.26
2023-03-26T17:22:15.596Z,9.21
2023-03-26T17:24:44.021Z,9.17
2023-03-26T17:27:50.162Z,9.13
2023-03-26T17:30:50.942Z,9.08
2023-03-26T17:33:25.500Z,9.07
2023-03-26T17:36:15.157Z,9.06
2023-03-26T17:38:47.369Z,9.05
2023-03-26T17:41:52.112Z,9.03
2023-03-26T17:44:37.782Z,9.00
2023-03-26T17:47:07.168Z,8.96
2023-03-26T17:49:36.829Z,8.92
2023-03-26T17:52:15.721Z,8.88
2023-03-26T17:54:48.093Z,8.84
2023-03-26T17:57:21.152Z,8.80
2023-03-26T17:59:50.656Z,8.75
2023-03-26T18:02:20.991Z,8.72
2023-03-26T18:04:51.643Z,8.68
2023-03-26T18:07:58.616Z,8.65
2023-03-26T18:10:46.487Z,8.60
2023-03-26T18:13:58.578Z,8.53
2023-03-26T18:16:37.454Z,8.47
2023-03-26T18:19:17.819Z,8.40
2023-03-26T18:21:52.210Z,8.34
2023-03-26T18:24:29.789Z,8.30
2023-03-26T18:27:20.783Z,8.25
2023-03-26T18:30:02.011Z,8.21
2023-03-26T18:32:41.213Z,8.17
2023-03-26T18:35:48.907Z,8.13
2023-03-26T18:38:36.733Z,8.07
2023-03-26T18:41:18.246Z,8.01
2023-03-26T18:43:48.132Z,7.96
2023-03-26T18:46:17.135Z,7.91
2023-03-26T18:48:47.126Z,7.87
2023-03-26T18:51:23.387Z,7.83
2023-03-26T18:53:55.772Z,7.80
2023-03-26T18:56:36.134Z,7.78
2023-03-26T18:59:28.154Z,7.77
2023-03-26T19:01:59.286Z,7.74
2023-03-26T19:04:28.146Z,7.72
2023-03-26T19:06:56.960Z,7.71
2023-03-26T19:09:31.640Z,7.68
2023-03-26T19:12:07.599Z,7.65
2023-03-26T19:15:04.600Z,7.63
2023-03-26T19:17:35.678Z,7.60
2023-03-26T19:20:07.653Z,7.58
2023-03-26T19:22:36.431Z,7.54
2023-03-26T19:25:05.627Z,7.47
2023-03-26T19:27:38.552Z,7.42
2023-03-26T19:30:08.486Z,7.37
2023-03-26T19:32:36.969Z,7.34
2023-03-26T19:35:18.097Z,7.32
2023-03-26T19:37:51.489Z,7.30
2023-03-26T19:40:23.695Z,7.27
2023-03-26T19:42:53.610Z,7.22
2023-03-26T19:45:23.188Z,7.20
2023-03-26T19:48:00.622Z,7.19
2023-03-26T19:50:37.486Z,7.17
2023-03-26T19:53:19.200Z,7.14
2023-03-26T19:56:11.677Z,7.11
2023-03-26T19:58:40.457Z,7.09
2023-03-26T20:01:17.340Z,7.07
2023-03-26T20:03:48.356Z,7.05
2023-03-26T20:06:20.978Z,7.03
2023-03-26T20:08:55.902Z,6.99
2023-03-26T20:11:25.162Z,6.96
2023-03-26T20:13:53.881Z,6.93
2023-03-26T20:16:32.047Z,6.91
2023-03-26T20:19:04.564Z,6.87
2023-03-26T20:21:41.722Z,6.82
2023-03-26T20:24:15.149Z,6.76
2023-03-26T20:26:45.059Z,6.70
2023-03-26T20:29:14.760Z,6.63
2023-03-26T20:31:43.284Z,6.54
2023-03-26T20:34:17.151Z,6.47
2023-03-26T20:36:54.375Z,6.42
2023-03-26T20:39:23.698Z,6.38
2023-03-26T20:41:55.411Z,6.34
2023-03-26T20:44:24.024Z,6.31
2023-03-26T20:46:52.623Z,6.30
2023-03-26T20:49:22.260Z,6.26
2023-03-26T20:51:50.813Z,6.23
2023-03-26T20:54:24.261Z,6.21
2023-03-26T20:56:53.703Z,6.19
2023-03-26T20:59:29.433Z,6.16
2023-03-26T21:01:59.423Z,6.14
2023-03-26T21:04:27.937Z,6.10
2023-03-26T21:07:07.153Z,6.07
2023-03-26T21:09:46.762Z,6.02
2023-03-26T21:12:30.125Z,6.02
2023-03-26T21:15:01.770Z,6.00
2023-03-26T21:17:34.348Z,5.99
2023-03-26T21:20:13.612Z,5.98
2023-03-26T21:22:54.399Z,5.97
2023-03-26T21:25:25.904Z,5.94
2023-03-26T21:28:41.880Z,5.94
2023-03-26T21:31:20.002Z,5.94
2023-03-26T21:33:49.715Z,5.93
2023-03-26T21:36:19.880Z,5.92
2023-03-26T21:38:50.673Z,5.91
2023-03-26T21:41:43.678Z,5.88
2023-03-26T21:44:14.379Z,5.86
2023-03-26T21:46:43.483Z,5.85
2023-03-26T21:49:12.684Z,5.84
2023-03-26T21:51:41.036Z,5.84
2023-03-26T21:54:28.116Z,5.83
2023-03-26T21:57:18.355Z,5.81
2023-03-26T22:00:02.076Z,5.78
2023-03-26T22:03:04.941Z,5.76
2023-03-26T22:05:44.282Z,5.74
2023-03-26T22:08:43.267Z,5.71
2023-03-26T22:11:11.480Z,5.67
2023-03-26T22:13:40.964Z,5.65
2023-03-26T22:16:10.880Z,5.63
2023-03-26T22:18:39.528Z,5.62
2023-03-26T22:21:08.026Z,5.61
2023-03-26T22:23:38.564Z,5.60
2023-03-26T22:26:07.419Z,5.57
2023-03-26T22:28:40.942Z,5.55
2023-03-26T22:31:09.779Z,5.53
2023-03-26T22:33:40.082Z,5.49
2023-03-26T22:36:22.844Z,5.47
2023-03-26T22:38:54.182Z,5.45
2023-03-26T22:41:24.003Z,5.45
2023-03-26T22:44:16.898Z,5.44
2023-03-26T22:46:51.722Z,5.43
2023-03-26T22:49:22.317Z,5.42
2023-03-26T22:51:51.703Z,5.41
2023-03-26T22:54:19.852Z,5.40
2023-03-26T22:56:48.286Z,5.37
2023-03-26T22:59:17.278Z,5.35
2023-03-26T23:01:46.521Z,5.32
2023-03-26T23:04:31.628Z,5.29
2023-03-26T23:07:00.885Z,5.28
2023-03-26T23:09:36.889Z,5.25
2023-03-26T23:12:12.411Z,5.22
2023-03-26T23:14:41.690Z,5.21
2023-03-26T23:17:19.962Z,5.19
2023-03-26T23:19:54.626Z,5.19
2023-03-26T23:22:22.695Z,5.18
2023-03-26T23:24:51.887Z,5.17
2023-03-26T23:27:22.560Z,5.16
2023-03-26T23:29:50.989Z,5.11
2023-03-26T23:32:24.234Z,5.07
2023-03-26T23:34:56.062Z,5.02
2023-03-26T23:37:24.357Z,4.99
2023-03-26T23:39:55.176Z,4.98
2023-03-26T23:42:28.740Z,4.96
2023-03-26T23:44:57.999Z,4.92
2023-03-26T23:47:27.261Z,4.90
2023-03-26T23:49:57.349Z,4.88
2023-03-26T23:52:25.587Z,4.86
2023-03-26T23:54:53.636Z,4.85
2023-03-26T23:57:22.368Z,4.82
2023-03-26T23:59:50.461Z,4.79
